Time;durP1;ratioP1;P1;durP2;ratioP2;P2;SDS_P1;SDS_P2;PMS_P1;PMS_P2;Temp;Humidity;BMP_temperature;BMP_pressure;BME280_temperature;BME280_humidity;BME280_pressure;Samples;Min_cycle;Max_cycle;Signal;HPM_P1;HPM_P2
2022/09/04 00:02:13;;;;;;;13.07;3.70;;;;;;;22.32;100.00;97816.41;5084744;28;20155;-93
2022/09/04 00:04:56;;;;;;;10.35;3.30;;;;;;;22.72;100.00;97812.66;5092742;28;20024;-93
2022/09/04 00:07:33;;;;;;;11.07;3.47;;;;;;;22.34;100.00;97813.69;5065348;28;20032;-91
2022/09/04 00:10:14;;;;;;;7.57;2.60;;;;;;;22.34;100.00;97808.38;5065384;28;20028;-92
2022/09/04 00:12:47;;;;;;;7.18;2.47;;;;;;;21.96;100.00;97803.94;5063336;28;20037;-93
2022/09/04 00:15:21;;;;;;;10.18;2.72;;;;;;;22.20;100.00;97804.03;5068047;28;20120;-93
2022/09/04 00:17:50;;;;;;;8.45;2.10;;;;;;;22.65;100.00;97811.44;5072425;28;20121;-91
2022/09/04 00:20:37;;;;;;;8.57;2.35;;;;;;;22.10;100.00;97806.50;5065925;28;20028;-90
2022/09/04 00:23:17;;;;;;;7.78;2.60;;;;;;;21.75;100.00;97806.31;5063161;28;20020;-93
2022/09/04 00:25:56;;;;;;;7.65;2.20;;;;;;;21.82;100.00;97812.88;5059973;28;20036;-93
2022/09/04 00:28:40;;;;;;;7.75;2.30;;;;;;;21.88;100.00;97814.25;5062694;28;20032;-92
2022/09/04 00:31:27;;;;;;;9.18;2.70;;;;;;;21.96;100.00;97812.78;5065693;28;20039;-92
2022/09/04 00:34:06;;;;;;;7.35;2.42;;;;;;;22.31;100.00;97808.53;5063945;28;20396;-92
2022/09/04 00:36:35;;;;;;;9.32;2.78;;;;;;;21.74;100.00;97808.13;5058152;28;20032;-92
2022/09/04 00:39:13;;;;;;;8.40;2.72;;;;;;;22.15;100.00;97812.28;5065129;28;20020;-90
2022/09/04 00:42:18;;;;;;;8.75;2.50;;;;;;;22.27;100.00;97809.75;5065214;28;20407;-93
2022/09/04 00:44:56;;;;;;;10.15;2.80;;;;;;;22.08;100.00;97811.03;5050595;28;20220;-92
2022/09/04 00:47:27;;;;;;;8.63;3.10;;;;;;;22.35;100.00;97827.81;5059414;28;20808;-92
2022/09/04 00:50:06;;;;;;;10.30;3.03;;;;;;;22.14;100.00;97825.69;5050532;28;20040;-91
2022/09/04 00:52:58;;;;;;;8.52;3.00;;;;;;;21.61;100.00;97821.41;5062852;28;20654;-91
2022/09/04 00:55:41;;;;;;;8.20;2.63;;;;;;;21.71;100.00;97818.09;5080069;28;20066;-92
2022/09/04 00:58:29;;;;;;;9.82;2.90;;;;;;;21.73;100.00;97822.34;5063216;28;20397;-93
2022/09/04 01:00:56;;;;;;;10.30;2.83;;;;;;;21.96;100.00;97835.81;5058925;28;20111;-93
2022/09/04 01:03:22;;;;;;;9.98;3.28;;;;;;;21.90;100.00;97833.59;5064140;28;20024;-93
2022/09/04 01:05:58;;;;;;;8.93;2.83;;;;;;;21.57;100.00;97832.31;5062254;28;20111;-93
2022/09/04 01:08:33;;;;;;;7.22;2.38;;;;;;;21.73;100.00;97829.47;5060157;28;20036;-93
2022/09/04 01:11:23;;;;;;;9.27;2.65;;;;;;;21.58;100.00;97839.34;5062153;28;20033;-91
2022/09/04 01:14:13;;;;;;;8.63;2.33;;;;;;;21.24;100.00;97833.63;5065230;28;20035;-91
2022/09/04 01:16:52;;;;;;;9.18;2.30;;;;;;;21.25;100.00;97832.69;5053576;28;20020;-94
2022/09/04 01:19:29;;;;;;;7.20;2.20;;;;;;;21.69;100.00;97820.88;5054949;28;20032;-90
2022/09/04 01:22:15;;;;;;;9.45;2.40;;;;;;;21.83;100.00;97828.69;5056574;28;20037;-94
2022/09/04 01:25:00;;;;;;;8.85;2.80;;;;;;;21.68;100.00;97826.28;5064805;28;20137;-94
2022/09/04 01:27:44;;;;;;;10.32;2.80;;;;;;;21.45;100.00;97831.34;5095681;28;20033;-91
2022/09/04 01:30:20;;;;;;;9.43;2.50;;;;;;;21.77;100.00;97829.16;5054619;28;20059;-93
2022/09/04 01:32:45;;;;;;;8.88;2.88;;;;;;;21.25;100.00;97835.34;5061147;28;20107;-94
2022/09/04 01:35:29;;;;;;;7.38;2.45;;;;;;;21.87;100.00;97833.81;5065092;28;20552;-91
2022/09/04 01:38:05;;;;;;;11.20;2.88;;;;;;;20.95;100.00;97837.28;5065014;28;20037;-92
2022/09/04 01:40:46;;;;;;;9.00;2.90;;;;;;;21.27;100.00;97836.09;5059401;28;20041;-93
2022/09/04 01:43:16;;;;;;;8.10;2.50;;;;;;;21.83;100.00;97836.66;5068796;28;20035;-94
2022/09/04 01:45:48;;;;;;;9.00;2.72;;;;;;;21.49;100.00;97840.81;5068521;28;20039;-93
2022/09/04 01:48:22;;;;;;;10.88;2.55;;;;;;;21.61;100.00;97833.81;5063021;28;20059;-94
2022/09/04 01:50:52;;;;;;;8.32;2.60;;;;;;;21.38;100.00;97844.19;5066276;28;20024;-92
2022/09/04 01:53:24;;;;;;;9.82;2.50;;;;;;;21.23;100.00;97837.25;5065490;28;20036;-92
2022/09/04 01:56:18;;;;;;;6.53;2.30;;;;;;;21.82;100.00;97834.13;5070102;28;20036;-95
2022/09/04 01:59:00;;;;;;;10.18;2.53;;;;;;;20.87;100.00;97831.66;5055513;28;20036;-92
2022/09/04 02:01:31;;;;;;;7.72;2.33;;;;;;;22.01;100.00;97835.50;5060540;28;20109;-93
2022/09/04 02:04:10;;;;;;;6.85;2.25;;;;;;;22.37;100.00;97839.19;5057100;28;20064;-95
2022/09/04 02:06:53;;;;;;;9.35;2.72;;;;;;;21.89;100.00;97838.03;5055863;28;20129;-94
2022/09/04 02:09:38;;;;;;;7.75;2.33;;;;;;;21.83;100.00;97839.31;5063132;28;20089;-92
2022/09/04 02:12:34;;;;;;;9.10;2.45;;;;;;;21.89;100.00;97835.38;5029853;28;20111;-92
2022/09/04 02:15:30;;;;;;;10.80;2.55;;;;;;;21.44;100.00;97838.44;5058767;28;20033;-91
2022/09/04 02:18:15;;;;;;;7.70;2.63;;;;;;;21.81;100.00;97843.06;5080269;28;20040;-93
2022/09/04 02:21:23;;;;;;;8.48;2.70;;;;;;;21.24;100.00;97842.47;5067832;28;20067;-93
2022/09/04 02:24:15;;;;;;;8.70;2.53;;;;;;;21.47;100.00;97834.72;5008238;28;20048;-93
2022/09/04 02:26:50;;;;;;;7.22;2.50;;;;;;;21.70;100.00;97837.63;5021944;28;20052;-93
2022/09/04 02:29:34;;;;;;;8.20;2.58;;;;;;;21.17;100.00;97837.66;5032198;28;21063;-93
2022/09/04 02:32:17;;;;;;;10.10;2.78;;;;;;;21.73;100.00;97835.63;5026582;28;20030;-93
2022/09/04 02:34:59;;;;;;;8.02;2.65;;;;;;;21.68;100.00;97837.75;5023237;28;21617;-95
2022/09/04 02:37:37;;;;;;;9.02;2.47;;;;;;;21.63;100.00;97834.56;5010453;28;20065;-94
2022/09/04 02:40:27;;;;;;;7.03;2.58;;;;;;;21.38;100.00;97830.91;5024253;28;20120;-94
2022/09/04 02:43:18;;;;;;;10.60;2.60;;;;;;;21.34;100.00;97841.84;5036103;28;20029;-94
2022/09/04 02:46:18;;;;;;;11.15;2.55;;;;;;;21.74;100.00;97842.63;5038452;28;20064;-94
2022/09/04 02:48:56;;;;;;;6.43;2.28;;;;;;;21.58;100.00;97848.13;4963719;28;20423;-93
2022/09/04 02:51:44;;;;;;;9.27;2.85;;;;;;;21.47;100.00;97842.69;4940974;28;20495;-94
2022/09/04 02:54:09;;;;;;;8.38;2.55;;;;;;;21.85;100.00;97841.03;4943835;28;20077;-93
2022/09/04 02:56:47;;;;;;;8.23;2.50;;;;;;;21.57;100.00;97841.16;4962919;28;20538;-93
2022/09/04 02:59:18;;;;;;;10.00;2.58;;;;;;;21.83;100.00;97851.75;4973126;28;20058;-93
2022/09/04 03:01:52;;;;;;;8.55;2.33;;;;;;;20.71;100.00;97846.84;4991392;28;20041;-93
2022/09/04 03:04:30;;;;;;;8.18;2.30;;;;;;;21.02;100.00;97842.22;5000168;28;20061;-92
2022/09/04 03:07:20;;;;;;;8.18;2.70;;;;;;;21.28;100.00;97832.47;4987616;28;20117;-93
2022/09/04 03:09:53;;;;;;;7.78;2.53;;;;;;;20.92;100.00;97845.47;4990457;28;20068;-93
2022/09/04 03:12:39;;;;;;;7.25;2.60;;;;;;;21.22;100.00;97847.00;4994969;28;20044;-94
2022/09/04 03:15:26;;;;;;;12.70;3.08;;;;;;;21.01;100.00;97845.81;4990490;28;20038;-94
2022/09/04 03:18:16;;;;;;;8.68;2.33;;;;;;;21.49;100.00;97838.97;4995585;28;20065;-93
2022/09/04 03:20:50;;;;;;;8.73;2.55;;;;;;;20.70;100.00;97845.19;4975111;28;20173;-94
2022/09/04 03:23:28;;;;;;;7.25;2.28;;;;;;;21.29;100.00;97842.13;4994249;28;20129;-94
2022/09/04 03:26:08;;;;;;;9.60;2.60;;;;;;;21.28;100.00;97828.03;5071917;28;20032;-94
2022/09/04 03:28:47;;;;;;;8.90;2.63;;;;;;;21.13;100.00;97845.81;5053982;28;20046;-93
2022/09/04 03:34:56;;;;;;;9.35;2.38;;;;;;;20.86;100.00;97843.19;5058254;28;20059;-92
2022/09/04 03:37:43;;;;;;;10.50;2.55;;;;;;;21.22;100.00;97832.91;5053744;28;20091;-94
2022/09/04 03:40:23;;;;;;;8.90;2.60;;;;;;;21.02;100.00;97840.41;5087967;28;20047;-93
2022/09/04 03:43:22;;;;;;;8.38;2.70;;;;;;;21.12;100.00;97837.97;5075445;28;20043;-94
2022/09/04 03:46:00;;;;;;;9.77;2.90;;;;;;;20.53;100.00;97847.06;5088023;27;20529;-94
2022/09/04 03:48:38;;;;;;;10.23;2.88;;;;;;;20.64;100.00;97836.63;5054751;28;20028;-92
2022/09/04 03:51:24;;;;;;;9.98;2.80;;;;;;;20.83;100.00;97840.75;5056764;28;20342;-92
2022/09/04 03:54:08;;;;;;;10.73;2.88;;;;;;;20.30;100.00;97837.94;5073046;28;20102;-93
2022/09/04 03:57:02;;;;;;;8.93;3.55;;;;;;;20.48;100.00;97837.72;5073966;28;20024;-92
2022/09/04 04:00:10;;;;;;;8.55;2.60;;;;;;;20.15;100.00;97842.41;5052541;28;20044;-92
2022/09/04 04:02:54;;;;;;;7.25;2.45;;;;;;;20.50;100.00;97838.47;5013224;28;20051;-92
2022/09/04 04:06:15;;;;;;;7.38;2.90;;;;;;;20.73;100.00;97842.31;5017243;28;20695;-92
2022/09/04 04:09:02;;;;;;;10.90;3.20;;;;;;;21.16;100.00;97839.47;4943794;28;20126;-92
2022/09/04 04:12:11;;;;;;;8.55;2.85;;;;;;;21.14;100.00;97836.94;4935363;28;20045;-93
2022/09/04 04:15:04;;;;;;;9.88;3.30;;;;;;;20.31;100.00;97836.16;4940678;28;20112;-92
2022/09/04 04:17:59;;;;;;;8.77;3.03;;;;;;;20.72;100.00;97838.78;4956019;28;20073;-94
2022/09/04 04:20:33;;;;;;;9.85;3.38;;;;;;;20.52;100.00;97847.19;4954801;28;20173;-93
2022/09/04 04:23:16;;;;;;;10.07;3.03;;;;;;;19.87;100.00;97838.84;4939537;28;20039;-92
2022/09/04 04:25:58;;;;;;;9.50;3.25;;;;;;;21.11;100.00;97845.09;4955647;28;20056;-92
2022/09/04 04:29:07;;;;;;;8.07;2.95;;;;;;;20.52;100.00;97848.03;4956256;28;20038;-93
2022/09/04 04:32:09;;;;;;;10.07;3.50;;;;;;;20.74;100.00;97849.31;4932847;28;20050;-92
2022/09/04 04:35:02;;;;;;;11.10;4.00;;;;;;;20.80;100.00;97849.75;4972798;28;20779;-92
2022/09/04 04:37:42;;;;;;;9.43;3.20;;;;;;;20.69;100.00;97856.72;4979036;28;20050;-93
2022/09/04 04:40:29;;;;;;;10.30;3.40;;;;;;;20.41;100.00;97848.69;4976207;28;20096;-93
2022/09/04 04:43:04;;;;;;;10.80;3.42;;;;;;;20.66;100.00;97854.25;5029176;28;20040;-92
2022/09/04 04:45:49;;;;;;;9.93;3.72;;;;;;;20.64;100.00;97847.22;5069204;28;20152;-93
2022/09/04 04:48:35;;;;;;;10.43;3.70;;;;;;;21.17;100.00;97850.91;5058127;28;20381;-92
2022/09/04 04:51:21;;;;;;;10.95;3.22;;;;;;;21.20;100.00;97853.38;5054825;28;20668;-92
2022/09/04 04:54:01;;;;;;;10.57;3.80;;;;;;;21.06;100.00;97860.44;5056206;28;20068;-92
2022/09/04 04:56:47;;;;;;;8.93;3.63;;;;;;;21.10;100.00;97869.06;5071063;28;20036;-93
2022/09/04 04:59:32;;;;;;;11.80;4.18;;;;;;;20.87;100.00;97871.41;5087968;28;20059;-92
2022/09/04 05:02:29;;;;;;;10.25;3.80;;;;;;;21.09;100.00;97875.31;5051076;28;20105;-92
2022/09/04 05:05:12;;;;;;;10.98;4.10;;;;;;;21.01;100.00;97874.97;5055655;28;20048;-91
2022/09/04 05:08:05;;;;;;;10.93;4.10;;;;;;;20.87;100.00;97875.88;5058448;28;20028;-91
2022/09/04 05:10:38;;;;;;;10.80;4.15;;;;;;;21.00;100.00;97887.34;5047976;28;20046;-93
2022/09/04 05:13:32;;;;;;;12.07;4.28;;;;;;;21.01;100.00;97883.75;5052989;28;20064;-93
2022/09/04 05:16:17;;;;;;;10.63;4.03;;;;;;;21.14;100.00;97879.34;5085979;27;20046;-92
2022/09/04 05:19:00;;;;;;;10.00;3.97;;;;;;;20.97;100.00;97877.81;5086694;28;20510;-92
2022/09/04 05:21:35;;;;;;;10.00;4.32;;;;;;;20.97;100.00;97874.28;5056596;28;20051;-91
2022/09/04 05:24:13;;;;;;;8.50;3.92;;;;;;;21.17;100.00;97877.44;5054481;28;20043;-93
2022/09/04 05:27:01;;;;;;;10.77;3.92;;;;;;;21.04;100.00;97880.88;5054841;28;20033;-94
2022/09/04 05:29:29;;;;;;;11.80;4.57;;;;;;;21.02;100.00;97881.97;5056902;28;20083;-94
2022/09/04 05:32:19;;;;;;;11.13;4.72;;;;;;;21.02;100.00;97881.97;5048563;28;20032;-92
2022/09/04 05:35:16;;;;;;;12.48;4.70;;;;;;;20.98;100.00;97884.78;5055095;28;20059;-93
2022/09/04 05:41:10;;;;;;;11.60;4.65;;;;;;;20.91;100.00;97888.81;5063030;28;20445;-94
2022/09/04 05:43:38;;;;;;;11.93;4.25;;;;;;;21.00;100.00;97889.16;5061270;28;20032;-93
2022/09/04 05:46:35;;;;;;;14.10;4.80;;;;;;;20.75;100.00;97894.25;5074041;28;20041;-93
2022/09/04 05:49:38;;;;;;;13.70;5.35;;;;;;;20.92;100.00;97890.50;5054258;28;20040;-93
2022/09/04 05:52:24;;;;;;;11.87;4.80;;;;;;;21.00;100.00;97897.09;5055040;28;20029;-93
2022/09/04 05:55:01;;;;;;;10.88;4.70;;;;;;;21.36;100.00;97901.75;5053076;28;20041;-92
2022/09/04 05:57:44;;;;;;;12.10;5.00;;;;;;;21.08;100.00;97906.25;5055496;28;20024;-91
2022/09/04 06:00:24;;;;;;;10.88;4.85;;;;;;;21.43;100.00;97912.81;5069794;28;20025;-92
2022/09/04 06:03:11;;;;;;;12.45;4.60;;;;;;;21.00;100.00;97926.25;5055180;28;20115;-91
2022/09/04 06:05:43;;;;;;;13.05;5.03;;;;;;;20.87;100.00;97931.53;5055087;28;20074;-92
2022/09/04 06:08:24;;;;;;;11.93;5.53;;;;;;;21.22;100.00;97933.66;5055468;28;20582;-92
2022/09/04 06:11:05;;;;;;;11.73;5.10;;;;;;;21.42;100.00;97943.81;5057775;28;20056;-92
2022/09/04 06:13:57;;;;;;;11.05;5.03;;;;;;;21.27;100.00;97953.63;5054984;28;21108;-91
2022/09/04 06:16:25;;;;;;;13.32;5.00;;;;;;;21.43;100.00;97947.31;5052812;28;20039;-91
2022/09/04 06:19:03;;;;;;;11.50;4.57;;;;;;;21.39;100.00;97956.41;5053451;28;20434;-92
2022/09/04 06:21:47;;;;;;;12.63;5.43;;;;;;;21.69;100.00;97955.38;5050766;28;20113;-92
2022/09/04 06:24:26;;;;;;;11.40;5.47;;;;;;;21.93;100.00;97947.53;5069955;28;20052;-92
2022/09/04 06:27:21;;;;;;;14.93;5.22;;;;;;;22.02;100.00;97954.88;5050588;28;20089;-92
2022/09/04 06:30:08;;;;;;;14.73;6.00;;;;;;;21.67;100.00;97957.25;5071263;28;20155;-92
2022/09/04 06:32:56;;;;;;;15.20;5.82;;;;;;;21.47;100.00;97952.31;5053544;28;20115;-91
2022/09/04 06:35:43;;;;;;;12.57;5.72;;;;;;;21.54;100.00;97955.44;5054829;28;20041;-92
2022/09/04 06:38:36;;;;;;;12.10;5.72;;;;;;;21.62;100.00;97947.81;5059926;28;20024;-93
2022/09/04 06:41:49;;;;;;;12.40;5.85;;;;;;;21.65;100.00;97941.44;5070607;28;20040;-93
2022/09/04 06:44:52;;;;;;;12.65;6.35;;;;;;;21.71;100.00;97943.69;5049911;28;20047;-92
2022/09/04 06:47:46;;;;;;;15.65;6.85;;;;;;;21.43;100.00;97942.00;5057717;28;20036;-92
2022/09/04 06:50:17;;;;;;;12.48;6.05;;;;;;;21.34;100.00;97937.31;5055786;28;20068;-91
2022/09/04 06:53:05;;;;;;;14.18;6.95;;;;;;;21.34;100.00;97932.03;5050540;28;20056;-91
2022/09/04 06:55:44;;;;;;;18.45;7.00;;;;;;;21.38;100.00;97930.84;5084997;28;20061;-92
2022/09/04 06:58:22;;;;;;;14.40;6.40;;;;;;;21.17;100.00;97927.81;5047291;28;20075;-91
2022/09/04 07:00:53;;;;;;;12.82;6.93;;;;;;;21.17;100.00;97930.47;5049850;28;20036;-92
2022/09/04 07:03:26;;;;;;;14.13;7.53;;;;;;;21.09;100.00;97931.81;5051193;28;20036;-91
2022/09/04 07:06:03;;;;;;;15.60;6.97;;;;;;;21.46;100.00;97941.78;5045993;28;20025;-93
2022/09/04 07:08:52;;;;;;;17.10;8.05;;;;;;;21.14;100.00;97942.13;5051851;28;20035;-91
2022/09/04 07:11:42;;;;;;;16.05;7.65;;;;;;;21.13;100.00;97945.75;5050868;28;20029;-91
2022/09/04 07:14:48;;;;;;;16.08;7.50;;;;;;;21.36;100.00;97941.53;5043754;28;20120;-91
2022/09/04 07:18:19;;;;;;;;;;;;;;;;;;;;;
2022/09/04 07:21:05;;;;;;;16.80;7.60;;;;;;;21.19;100.00;97945.31;4996106;28;20033;-92
2022/09/04 07:23:46;;;;;;;16.15;8.20;;;;;;;20.96;100.00;97950.31;4979769;28;20037;-93
2022/09/04 07:26:38;;;;;;;15.15;7.40;;;;;;;21.30;100.00;97948.13;4997748;28;20049;-91
2022/09/04 07:29:14;;;;;;;16.35;8.13;;;;;;;21.18;100.00;97948.91;4992517;28;20045;-91
2022/09/04 07:31:58;;;;;;;16.35;8.02;;;;;;;21.40;100.00;97948.34;4983915;28;20124;-90
2022/09/04 07:34:32;;;;;;;15.13;8.02;;;;;;;20.86;100.00;97954.50;5002949;28;20379;-91
2022/09/04 07:37:10;;;;;;;16.40;8.77;;;;;;;21.45;100.00;97956.88;5005574;28;20034;-93
2022/09/04 07:40:02;;;;;;;18.08;8.93;;;;;;;21.26;100.00;97962.53;5015173;28;20120;-93
2022/09/04 07:42:53;;;;;;;15.93;9.32;;;;;;;20.87;100.00;97965.97;5007961;28;20438;-90
2022/09/04 07:45:53;;;;;;;16.02;8.30;;;;;;;20.69;100.00;97963.53;4998702;28;20541;-91
2022/09/04 07:48:28;;;;;;;20.27;9.18;;;;;;;21.24;100.00;97967.09;5000808;28;20045;-92
2022/09/04 07:51:09;;;;;;;19.98;9.63;;;;;;;21.41;100.00;97954.53;5006223;28;20113;-93
2022/09/04 07:54:03;;;;;;;21.88;10.57;;;;;;;21.35;100.00;97962.88;5049946;28;20202;-91
2022/09/04 07:57:12;;;;;;;18.88;8.95;;;;;;;21.12;100.00;97970.53;5063475;28;20044;-93
2022/09/04 08:00:00;;;;;;;19.98;9.48;;;;;;;21.39;100.00;97973.19;5069569;28;20047;-91
2022/09/04 08:02:50;;;;;;;19.98;9.73;;;;;;;21.35;100.00;97971.69;5066219;28;20040;-90
2022/09/04 08:05:23;;;;;;;19.77;9.80;;;;;;;21.34;100.00;97970.00;5065215;28;20031;-90
2022/09/04 08:08:18;;;;;;;;;;;;;;;21.13;100.00;97969.59;5067234;28;20073;-91
2022/09/04 08:11:14;;;;;;;17.73;9.82;;;;;;;21.36;100.00;97972.53;5058609;28;20489;-93
2022/09/04 08:14:13;;;;;;;24.05;10.15;;;;;;;21.28;100.00;97978.34;5063932;28;20036;-92
2022/09/04 08:16:46;;;;;;;23.45;11.20;;;;;;;21.72;100.00;97974.56;5099343;28;20055;-90
2022/09/04 08:19:56;;;;;;;21.05;10.80;;;;;;;21.47;100.00;97988.59;5085440;28;20115;-92
2022/09/04 08:22:41;;;;;;;19.33;11.57;;;;;;;21.74;100.00;97982.41;5021375;28;20041;-94
2022/09/04 08:25:15;;;;;;;20.95;10.45;;;;;;;21.70;100.00;97981.78;5022580;28;20037;-93
2022/09/04 08:28:08;;;;;;;22.02;10.55;;;;;;;21.52;100.00;97986.53;5017907;28;20120;-95
2022/09/04 08:30:46;;;;;;;19.30;9.98;;;;;;;22.07;100.00;97989.06;5005678;28;20131;-92
2022/09/04 08:33:27;;;;;;;20.70;10.20;;;;;;;21.74;100.00;97988.59;5006786;28;20036;-92
2022/09/04 08:36:15;;;;;;;20.70;10.30;;;;;;;22.16;100.00;97988.44;5007344;28;20092;-91
2022/09/04 08:38:50;;;;;;;17.92;9.77;;;;;;;22.16;100.00;98010.53;5021014;28;20033;-92
2022/09/04 08:41:30;;;;;;;19.80;9.20;;;;;;;22.16;100.00;98023.81;5021685;28;20147;-93
2022/09/04 08:44:32;;;;;;;18.33;9.35;;;;;;;22.00;100.00;98036.41;5006139;28;20026;-92
2022/09/04 08:47:23;;;;;;;19.02;10.45;;;;;;;22.36;100.00;98024.25;5016528;28;20034;-92
2022/09/04 08:50:02;;;;;;;18.98;8.88;;;;;;;21.99;100.00;98027.59;5006002;28;20033;-91
2022/09/04 08:52:43;;;;;;;16.55;8.93;;;;;;;22.58;100.00;98026.28;5016598;28;20049;-93
2022/09/04 08:55:38;;;;;;;17.10;9.07;;;;;;;22.20;100.00;98021.78;5015631;28;20110;-90
2022/09/04 08:58:12;;;;;;;17.85;9.38;;;;;;;22.27;100.00;98025.72;5020080;28;20040;-93
2022/09/04 09:01:06;;;;;;;17.98;8.88;;;;;;;22.41;100.00;98030.13;5060005;28;20111;-91
2022/09/04 09:03:57;;;;;;;18.20;8.70;;;;;;;23.08;100.00;98036.94;5056676;28;20033;-93
2022/09/04 09:06:31;;;;;;;19.88;9.02;;;;;;;22.89;100.00;98032.06;5079807;28;20206;-94
2022/09/04 09:09:19;;;;;;;16.42;8.60;;;;;;;22.47;100.00;98034.16;5066278;28;20040;-95
2022/09/04 09:12:08;;;;;;;14.20;7.40;;;;;;;22.66;100.00;98044.34;5098653;28;20036;-96
2022/09/04 09:14:46;;;;;;;16.63;7.75;;;;;;;22.64;100.00;98041.81;5062396;28;20055;-94
2022/09/04 09:17:15;;;;;;;15.48;7.95;;;;;;;23.18;100.00;98040.66;5074193;28;20097;-95
2022/09/04 09:22:46;;;;;;;16.85;7.72;;;;;;;23.38;100.00;98043.66;2166304;23;20066;-96
2022/09/04 09:25:21;;;;;;;15.18;6.90;;;;;;;23.12;100.00;98037.63;4973069;28;20027;-96
2022/09/04 09:28:24;;;;;;;16.25;7.43;;;;;;;23.27;100.00;98051.59;4980881;28;20384;-93
2022/09/04 09:31:26;;;;;;;15.48;7.28;;;;;;;23.10;100.00;98050.13;4982863;28;21727;-94
2022/09/04 09:34:23;;;;;;;17.05;7.05;;;;;;;23.18;100.00;98063.75;4971513;28;21779;-96
2022/09/04 09:37:11;;;;;;;14.00;6.75;;;;;;;23.00;100.00;98065.88;4984550;28;20041;-95
2022/09/04 09:40:01;;;;;;;16.02;6.65;;;;;;;23.46;100.00;98065.25;4971193;28;20035;-96
2022/09/04 09:42:42;;;;;;;14.20;6.65;;;;;;;23.12;100.00;98059.72;4980258;28;20047;-96
2022/09/04 09:45:35;;;;;;;14.90;6.13;;;;;;;22.73;100.00;98060.69;4984886;28;20107;-94
2022/09/04 09:48:41;;;;;;;14.32;6.00;;;;;;;23.57;100.00;98053.81;4974697;28;20426;-96
2022/09/04 09:51:31;;;;;;;14.30;6.30;;;;;;;22.88;100.00;98053.47;4965012;28;20034;-96
2022/09/04 09:54:21;;;;;;;14.60;6.30;;;;;;;23.61;100.00;98059.78;4984597;28;20062;-96
2022/09/04 09:57:10;;;;;;;18.58;6.50;;;;;;;24.29;100.00;98060.91;4971539;28;20058;-95
2022/09/04 10:00:05;;;;;;;14.70;6.38;;;;;;;24.77;100.00;98067.88;4981025;28;20043;-96
2022/09/04 10:02:33;;;;;;;15.07;6.50;;;;;;;24.08;100.00;98070.50;4967537;28;20073;-95
2022/09/04 10:05:18;;;;;;;16.23;5.82;;;;;;;24.42;100.00;98065.28;4985151;28;20022;-94
2022/09/04 10:08:05;;;;;;;13.88;5.72;;;;;;;22.89;100.00;98074.63;4963156;28;20141;-96
2022/09/04 10:10:40;;;;;;;14.50;5.63;;;;;;;23.33;100.00;98072.44;4969567;28;20031;-96
2022/09/04 10:13:25;;;;;;;11.60;5.47;;;;;;;24.20;100.00;98067.78;4966183;28;20042;-96
2022/09/04 10:16:14;;;;;;;14.07;5.95;;;;;;;23.84;100.00;98069.56;4970591;28;20510;-96
2022/09/04 10:55:48;;;;;;;11.70;4.18;;;;;;;24.35;100.00;98088.91;5003580;23;20060;-96
2022/09/04 10:58:38;;;;;;;11.55;4.10;;;;;;;24.04;100.00;98096.56;4983898;28;20033;-96
2022/09/04 11:01:26;;;;;;;11.50;4.72;;;;;;;23.93;100.00;98099.19;4993191;28;20046;-94
2022/09/04 11:04:25;;;;;;;13.50;3.95;;;;;;;23.60;100.00;98104.16;4988597;28;20117;-95
2022/09/04 11:07:37;;;;;;;11.93;4.25;;;;;;;24.11;100.00;98102.28;4990823;28;20058;-93
2022/09/04 11:10:25;;;;;;;13.02;3.90;;;;;;;23.45;100.00;98103.50;4988768;28;20034;-96
2022/09/04 11:13:05;;;;;;;11.02;4.05;;;;;;;24.30;100.00;98096.38;4987762;28;20159;-96
2022/09/04 11:15:58;;;;;;;10.27;3.80;;;;;;;24.71;100.00;98103.06;4990307;28;20133;-94
2022/09/04 11:18:52;;;;;;;12.27;3.92;;;;;;;25.50;100.00;98099.53;5004437;28;20038;-96
2022/09/04 11:21:19;;;;;;;9.65;3.70;;;;;;;24.73;100.00;98110.94;5006252;28;20026;-96
2022/09/04 11:24:10;;;;;;;11.90;3.97;;;;;;;24.73;100.00;98111.75;4991683;28;20042;-94
2022/09/04 11:27:00;;;;;;;10.85;3.60;;;;;;;24.45;100.00;98105.88;5019419;23;20058;-96
2022/09/04 11:29:44;;;;;;;12.68;3.58;;;;;;;24.73;100.00;98111.75;4993824;28;20065;-94
2022/09/04 11:32:35;;;;;;;14.25;3.45;;;;;;;24.97;100.00;98110.81;5008199;28;20034;-94
2022/09/04 11:35:35;;;;;;;12.80;3.65;;;;;;;25.57;100.00;98106.06;4982930;28;20054;-95
2022/09/04 11:38:30;;;;;;;17.13;3.90;;;;;;;25.20;100.00;98112.50;4959061;28;20043;-96
2022/09/04 11:41:27;;;;;;;11.18;3.45;;;;;;;25.43;100.00;98109.00;4955856;28;20030;-95
2022/09/04 11:44:15;;;;;;;11.55;3.75;;;;;;;24.60;100.00;98113.66;4954358;28;20133;-96
2022/09/04 11:46:59;;;;;;;15.75;4.10;;;;;;;24.35;100.00;98121.72;4960691;28;20049;-95
2022/09/04 11:49:40;;;;;;;12.30;3.75;;;;;;;24.26;100.00;98117.09;4976542;28;20051;-95
2022/09/04 11:52:27;;;;;;;11.95;3.83;;;;;;;24.74;100.00;98121.47;4976890;28;20080;-95
2022/09/04 11:55:33;;;;;;;9.10;3.58;;;;;;;24.95;100.00;98129.59;4964110;28;20022;-96
2022/09/04 11:58:43;;;;;;;10.48;3.50;;;;;;;24.71;100.00;98121.72;4977266;28;20507;-96
2022/09/04 12:01:17;;;;;;;12.93;3.92;;;;;;;25.11;100.00;98129.28;4960470;28;20102;-96
2022/09/04 12:04:21;;;;;;;13.18;3.40;;;;;;;24.98;100.00;98134.72;4956173;28;20094;-96
2022/09/04 12:07:11;;;;;;;11.32;3.60;;;;;;;25.77;100.00;98130.31;4971611;28;20035;-95
2022/09/04 12:10:05;;;;;;;12.32;3.58;;;;;;;25.43;100.00;98147.25;4958482;28;20098;-95
2022/09/04 12:13:03;;;;;;;8.93;2.97;;;;;;;24.65;100.00;98149.69;4993124;28;20042;-96
2022/09/04 12:16:12;;;;;;;13.85;3.80;;;;;;;25.39;100.00;98151.13;4990922;28;20491;-95
2022/09/04 12:18:43;;;;;;;11.35;3.20;;;;;;;24.77;100.00;98153.22;4989943;28;20061;-95
2022/09/04 12:21:35;;;;;;;9.38;3.20;;;;;;;25.21;100.00;98151.56;4992978;28;20073;-96
2022/09/04 12:24:09;;;;;;;10.10;2.95;;;;;;;25.38;100.00;98154.75;5001211;28;20045;-95
2022/09/04 12:26:57;;;;;;;9.68;3.22;;;;;;;24.95;100.00;98150.94;5001692;28;20101;-96
2022/09/04 12:29:28;;;;;;;10.68;2.63;;;;;;;25.11;100.00;98152.41;4999570;28;20041;-96
2022/09/04 12:32:07;;;;;;;10.50;2.70;;;;;;;25.28;100.00;98145.75;4999503;28;20106;-96
2022/09/04 12:34:48;;;;;;;9.63;3.05;;;;;;;25.46;100.00;98151.50;5000364;28;20053;-95
2022/09/04 12:37:42;;;;;;;11.88;2.90;;;;;;;26.01;100.00;98146.13;4987443;28;20042;-96
2022/09/04 12:40:19;;;;;;;10.27;2.78;;;;;;;25.73;100.00;98151.94;4990181;28;20035;-95
2022/09/04 12:42:56;;;;;;;11.52;2.72;;;;;;;25.43;100.00;98155.25;5003193;28;20034;-96
2022/09/04 12:45:39;;;;;;;12.43;3.45;;;;;;;25.42;100.00;98144.69;5012065;28;20045;-95
2022/09/04 12:48:50;;;;;;;8.50;2.58;;;;;;;25.64;100.00;98150.00;5007011;28;20021;-95
2022/09/04 12:51:23;;;;;;;10.10;2.55;;;;;;;25.97;100.00;98153.56;4999475;28;20092;-96
2022/09/04 12:54:30;;;;;;;10.45;2.72;;;;;;;25.84;100.00;98151.03;5003557;28;20038;-96
2022/09/04 12:56:59;;;;;;;9.50;2.83;;;;;;;26.59;100.00;98153.81;4997012;28;20049;-95
2022/09/04 12:59:43;;;;;;;10.60;2.70;;;;;;;26.08;100.00;98152.69;5004050;28;20041;-96
2022/09/04 13:02:16;;;;;;;9.88;2.42;;;;;;;26.08;100.00;98149.19;5003348;28;20471;-96
2022/09/04 13:04:45;;;;;;;;;;;;;;;24.79;100.00;98153.97;5001280;28;20022;-96
2022/09/04 13:07:40;;;;;;;9.15;2.25;;;;;;;25.07;100.00;98149.16;5006825;28;19917;-96
2022/09/04 13:10:22;;;;;;;9.05;2.15;;;;;;;25.79;100.00;98149.72;5000449;28;20045;-96
2022/09/04 13:13:15;;;;;;;14.75;2.60;;;;;;;25.71;100.00;98143.19;5007955;28;20061;-96
2022/09/04 13:16:01;;;;;;;;;;;;;;;26.15;100.00;98140.53;5009891;28;20474;-96
2022/09/04 13:19:21;;;;;;;10.48;2.28;;;;;;;25.94;100.00;98151.13;5008483;28;20392;-96
2022/09/04 13:22:05;;;;;;;10.20;2.08;;;;;;;25.72;100.00;98157.38;4968756;28;20037;-96
2022/09/04 13:25:01;;;;;;;7.47;2.20;;;;;;;26.32;100.00;98148.94;4966407;28;20039;-96
2022/09/04 13:27:56;;;;;;;10.27;2.28;;;;;;;26.47;100.00;98154.84;4958534;29;20070;-96
2022/09/04 13:30:33;;;;;;;8.30;2.00;;;;;;;25.42;100.00;98156.22;4988240;28;20043;-96
2022/09/04 13:33:38;;;;;;;9.75;2.35;;;;;;;25.91;100.00;98154.06;4978645;28;20023;-96